Corpus Christi Army Depot, Texas
Current Conditions -  °F | °C
As of 12:56 AM on Sunday 26 Oct 2014 (Local Time) from KNGP Reporting Station
Clear Clear  
Wind Chill: 70°   Ceiling: Unl
Heat Index: 70°   Visibility: 10mi
Dew Point: 66°   Wind: 6mph
Humidity: 87%   Direction: 160°SSE
Pressure: 30.07"   Gusts: NA
Location:  27.6657°N, 97.1897°W
Report Text: KNGP 260556Z AUTO 16005KT 10SM CLR 21/19 A3007 RMK AO2 SLP182 T02110189 10239 20206 402780189 58010
Loading
Personal Weather Stations






























Interactive Weather Map
Tropical Storm Tracking
New forecast layout! Learn more

10-Day Weather Forecast

Advertisements
Track Severe Weather on mobile